createdAt,value
2022-12-01T00:01:02.417Z,89.18
2022-12-01T00:04:05.447Z,89.23
2022-12-01T00:07:09.564Z,89.49
2022-12-01T00:10:28.664Z,89.00
2022-12-01T00:13:31.432Z,89.44
2022-12-01T00:16:35.178Z,89.32
2022-12-01T00:19:37.967Z,89.57
2022-12-01T00:22:45.170Z,89.44
2022-12-01T00:25:48.001Z,88.99
2022-12-01T00:28:51.625Z,88.67
2022-12-01T00:31:54.442Z,88.56
2022-12-01T00:34:57.305Z,88.73
2022-12-01T00:38:02.128Z,88.99
2022-12-01T00:41:05.243Z,89.25
2022-12-01T00:44:08.132Z,89.20
2022-12-01T00:47:10.887Z,88.96
2022-12-01T00:50:13.617Z,88.82
2022-12-01T00:53:17.733Z,86.33
2022-12-01T00:56:21.140Z,85.74
2022-12-01T00:59:24.312Z,87.11
2022-12-01T01:02:27.222Z,86.35
2022-12-01T01:05:30.139Z,87.46
2022-12-01T01:08:34.272Z,87.11
2022-12-01T01:11:37.526Z,86.53
2022-12-01T01:14:40.248Z,86.84
2022-12-01T01:17:43.033Z,86.69
2022-12-01T01:20:45.751Z,86.35
2022-12-01T01:23:50.359Z,86.24
2022-12-01T01:26:55.379Z,86.83
2022-12-01T01:29:58.134Z,87.03
2022-12-01T01:33:00.830Z,87.32
2022-12-01T01:36:04.956Z,85.67
2022-12-01T01:39:09.084Z,85.68
2022-12-01T01:42:13.978Z,85.60
2022-12-01T01:45:22.152Z,84.75
2022-12-01T01:48:24.987Z,85.55
2022-12-01T01:51:31.762Z,85.23
2022-12-01T01:54:38.630Z,84.97
2022-12-01T01:57:43.072Z,85.41
2022-12-01T02:00:46.548Z,85.51
2022-12-01T02:03:51.926Z,85.02
2022-12-01T02:06:55.393Z,85.61
2022-12-01T02:09:59.824Z,86.24
2022-12-01T02:13:15.931Z,85.77
2022-12-01T02:16:24.433Z,85.71
2022-12-01T02:19:46.184Z,86.12
2022-12-01T02:23:02.479Z,85.15
2022-12-01T02:26:20.683Z,84.34
2022-12-01T02:30:01.014Z,84.93
2022-12-01T02:33:12.910Z,84.43
2022-12-01T02:36:20.706Z,84.52
2022-12-01T02:39:30.373Z,85.49
2022-12-01T02:42:54.076Z,85.48
2022-12-01T02:46:02.056Z,85.77
2022-12-01T02:49:11.365Z,85.79
2022-12-01T02:52:16.072Z,86.40
2022-12-01T02:55:18.911Z,86.83
2022-12-01T02:58:22.292Z,86.59
2022-12-01T03:01:41.392Z,86.07
2022-12-01T03:04:56.094Z,86.36
2022-12-01T03:08:05.745Z,85.88
2022-12-01T03:11:08.559Z,85.98
2022-12-01T03:14:19.355Z,86.09
2022-12-01T03:17:30.073Z,86.19
2022-12-01T03:20:38.540Z,86.60
2022-12-01T03:23:44.660Z,86.41
2022-12-01T03:26:49.931Z,86.57
2022-12-01T03:29:56.852Z,85.15
2022-12-01T03:33:04.720Z,84.20
2022-12-01T03:36:15.159Z,84.45
2022-12-01T03:39:23.298Z,84.25
2022-12-01T03:42:30.117Z,84.79
2022-12-01T03:45:37.429Z,84.91
2022-12-01T03:48:40.759Z,85.45
2022-12-01T03:51:55.384Z,85.39
2022-12-01T03:55:10.446Z,85.37
2022-12-01T03:58:18.549Z,84.91
2022-12-01T04:01:22.453Z,84.25
2022-12-01T04:04:25.320Z,83.28
2022-12-01T04:07:29.571Z,83.45
2022-12-01T04:10:33.037Z,81.22
2022-12-01T04:13:35.206Z,82.54
2022-12-01T04:16:38.048Z,82.56
2022-12-01T04:19:40.862Z,83.37
2022-12-01T04:22:45.314Z,83.71
2022-12-01T04:25:48.095Z,82.69
2022-12-01T04:28:54.404Z,80.84
2022-12-01T04:31:59.892Z,81.70
2022-12-01T04:35:03.257Z,80.61
2022-12-01T04:38:07.490Z,80.66
2022-12-01T04:41:11.131Z,80.44
2022-12-01T04:44:14.297Z,79.68
2022-12-01T04:47:17.077Z,80.20
2022-12-01T04:50:25.396Z,80.59
2022-12-01T04:53:30.164Z,81.42
2022-12-01T04:56:33.597Z,80.90
2022-12-01T04:59:36.381Z,79.84
2022-12-01T05:02:39.118Z,79.29
2022-12-01T05:05:41.916Z,78.78
2022-12-01T05:08:46.152Z,79.52
2022-12-01T05:11:48.893Z,79.09
2022-12-01T05:14:51.859Z,79.36
2022-12-01T05:17:54.854Z,79.98
2022-12-01T05:20:59.319Z,78.88
2022-12-01T05:24:03.496Z,80.24
2022-12-01T05:27:06.293Z,80.18
2022-12-01T05:30:10.165Z,80.81
2022-12-01T05:33:12.956Z,81.55
2022-12-01T05:36:15.770Z,81.53
2022-12-01T05:39:19.931Z,81.70
2022-12-01T05:42:22.821Z,81.84
2022-12-01T05:45:26.238Z,81.80
2022-12-01T05:48:29.093Z,82.29
2022-12-01T05:51:31.884Z,81.62
2022-12-01T05:54:36.020Z,82.88
2022-12-01T05:57:38.778Z,83.17
2022-12-01T06:00:45.733Z,83.78
2022-12-01T06:03:49.121Z,83.64
2022-12-01T06:06:51.934Z,83.69
2022-12-01T06:09:56.028Z,84.19
2022-12-01T06:12:58.752Z,84.07
2022-12-01T06:16:03.420Z,84.18
2022-12-01T06:19:06.256Z,84.19
2022-12-01T06:22:08.995Z,83.47
2022-12-01T06:25:13.064Z,83.41
2022-12-01T06:28:16.358Z,82.59
2022-12-01T06:31:19.071Z,82.35
2022-12-01T06:34:21.913Z,82.54
2022-12-01T06:37:24.636Z,82.66
2022-12-01T06:40:28.871Z,82.63
2022-12-01T06:43:31.624Z,81.89
2022-12-01T06:46:34.419Z,81.27
2022-12-01T06:49:37.905Z,81.39
2022-12-01T06:52:40.702Z,82.17
2022-12-01T06:55:44.789Z,82.68
2022-12-01T06:58:48.102Z,82.99
2022-12-01T07:01:50.971Z,83.46
2022-12-01T07:04:53.795Z,83.88
2022-12-01T07:07:59.668Z,83.40
2022-12-01T07:11:06.079Z,82.64
2022-12-01T07:14:17.645Z,82.43
2022-12-01T07:17:20.416Z,81.99
2022-12-01T07:20:23.159Z,82.12
2022-12-01T07:23:25.879Z,82.07
2022-12-01T07:26:29.946Z,82.06
2022-12-01T07:29:32.668Z,82.38
2022-12-01T07:32:35.524Z,82.45
2022-12-01T07:35:38.259Z,82.36
2022-12-01T07:38:41.555Z,83.02
2022-12-01T07:41:45.952Z,83.08
2022-12-01T07:44:48.643Z,82.01
2022-12-01T07:47:53.620Z,81.82
2022-12-01T07:50:56.752Z,82.29
2022-12-01T07:54:03.650Z,82.19
2022-12-01T07:57:07.830Z,81.98
2022-12-01T08:00:11.696Z,82.24
2022-12-01T08:03:15.216Z,82.67
2022-12-01T08:06:19.246Z,82.25
2022-12-01T08:09:22.189Z,82.12
2022-12-01T08:12:26.282Z,82.51
2022-12-01T08:15:29.037Z,82.11
2022-12-01T08:18:31.826Z,82.27
2022-12-01T08:21:34.594Z,82.19
2022-12-01T08:24:37.316Z,82.39
2022-12-01T08:27:41.671Z,82.31
2022-12-01T08:30:44.432Z,82.74
2022-12-01T08:33:47.322Z,83.42
2022-12-01T08:36:49.996Z,83.04
2022-12-01T08:39:52.718Z,83.19
2022-12-01T08:42:56.761Z,82.63
2022-12-01T08:46:02.259Z,82.42
2022-12-01T08:49:06.304Z,82.91
2022-12-01T08:52:09.092Z,82.76
2022-12-01T08:55:11.827Z,82.65
2022-12-01T08:58:15.935Z,82.44
2022-12-01T09:01:20.161Z,82.60
2022-12-01T09:04:25.181Z,82.58
2022-12-01T09:07:28.006Z,82.80
2022-12-01T09:10:30.994Z,80.98
2022-12-01T09:13:37.141Z,81.37
2022-12-01T09:16:39.954Z,82.35
2022-12-01T09:19:42.831Z,82.53
2022-12-01T09:22:45.619Z,82.22
2022-12-01T09:25:48.612Z,82.59
2022-12-01T09:28:54.940Z,82.63
2022-12-01T09:31:58.661Z,82.51
2022-12-01T09:35:03.141Z,82.67
2022-12-01T09:38:07.035Z,82.50
2022-12-01T09:41:16.517Z,82.45
2022-12-01T09:44:33.081Z,81.78
2022-12-01T09:47:38.097Z,81.63
2022-12-01T09:50:40.847Z,81.50
2022-12-01T09:53:45.031Z,81.64
2022-12-01T09:56:51.033Z,81.37
2022-12-01T09:59:55.729Z,81.65
2022-12-01T10:03:06.011Z,81.51
2022-12-01T10:06:32.045Z,80.61
2022-12-01T10:09:42.259Z,78.57
2022-12-01T10:12:47.738Z,77.58
2022-12-01T10:16:00.671Z,77.42
2022-12-01T10:19:09.854Z,77.42
2022-12-01T10:22:36.042Z,78.24
2022-12-01T10:25:51.836Z,78.41
2022-12-01T10:29:09.916Z,78.15
2022-12-01T10:32:19.595Z,77.35
2022-12-01T10:35:24.456Z,77.77
2022-12-01T10:38:29.877Z,77.94
2022-12-01T10:41:37.084Z,76.84
2022-12-01T10:44:40.939Z,73.16
2022-12-01T10:48:15.352Z,72.56
2022-12-01T10:51:20.050Z,73.79
2022-12-01T10:54:24.234Z,74.81
2022-12-01T10:57:29.897Z,74.03
2022-12-01T11:00:58.685Z,72.73
2022-12-01T11:04:08.161Z,73.96
2022-12-01T11:07:16.969Z,72.49
2022-12-01T11:10:24.034Z,73.75
2022-12-01T11:13:30.268Z,74.81
2022-12-01T11:16:38.530Z,74.17
2022-12-01T11:19:42.731Z,74.64
2022-12-01T11:22:45.550Z,75.46
2022-12-01T11:25:59.345Z,75.56
2022-12-01T11:29:05.925Z,75.23
2022-12-01T11:32:18.466Z,75.74
2022-12-01T11:35:24.920Z,75.69
2022-12-01T11:38:34.539Z,75.31
2022-12-01T11:41:40.821Z,73.88
2022-12-01T11:44:51.986Z,74.57
2022-12-01T11:48:04.148Z,75.71
2022-12-01T11:51:12.838Z,75.44
2022-12-01T11:54:18.063Z,74.44
2022-12-01T11:57:33.594Z,73.34
2022-12-01T12:00:46.782Z,73.50
2022-12-01T12:03:59.578Z,72.73
2022-12-01T12:07:11.367Z,72.71
2022-12-01T12:10:29.229Z,74.28
2022-12-01T12:13:46.363Z,73.96
2022-12-01T12:17:02.999Z,73.81
2022-12-01T12:20:25.620Z,74.47
2022-12-01T12:23:45.689Z,73.42
2022-12-01T12:26:55.750Z,73.83
2022-12-01T12:30:16.954Z,73.51
2022-12-01T12:33:55.778Z,74.13
2022-12-01T12:41:46.946Z,73.84
2022-12-01T12:44:52.814Z,73.74
2022-12-01T12:48:11.526Z,73.98
2022-12-01T12:51:21.218Z,74.77
2022-12-01T12:54:28.902Z,75.21
2022-12-01T12:57:38.025Z,74.40
2022-12-01T13:00:47.336Z,72.93
2022-12-01T13:03:58.908Z,73.28
2022-12-01T13:07:07.265Z,74.40
2022-12-01T13:10:23.147Z,73.78
2022-12-01T13:13:32.298Z,73.07
2022-12-01T13:16:37.612Z,73.39
2022-12-01T13:19:43.477Z,73.73
2022-12-01T13:22:47.276Z,73.59
2022-12-01T13:25:52.801Z,73.63
2022-12-01T13:28:58.889Z,74.79
2022-12-01T13:32:03.070Z,74.92
2022-12-01T13:35:25.023Z,74.83
2022-12-01T13:38:31.205Z,74.40
2022-12-01T13:41:35.316Z,75.03
2022-12-01T13:44:45.023Z,75.41
2022-12-01T13:47:57.293Z,74.70
2022-12-01T13:51:02.626Z,74.50
2022-12-01T13:54:26.915Z,75.00
2022-12-01T13:57:31.823Z,75.81
2022-12-01T14:00:36.280Z,74.18
2022-12-01T14:03:41.660Z,74.08
2022-12-01T14:06:49.435Z,74.88
2022-12-01T14:09:54.797Z,73.34
2022-12-01T14:13:04.556Z,74.44
2022-12-01T14:16:16.545Z,74.32
2022-12-01T14:19:34.618Z,75.44
2022-12-01T14:22:40.447Z,75.86
2022-12-01T14:25:44.701Z,75.48
2022-12-01T14:29:24.380Z,75.99
2022-12-01T14:32:28.429Z,75.98
2022-12-01T14:35:33.038Z,76.35
2022-12-01T14:38:36.097Z,76.24
2022-12-01T14:41:44.663Z,76.19
2022-12-01T14:44:50.548Z,77.05
2022-12-01T14:48:02.092Z,76.40
2022-12-01T14:51:14.818Z,77.10
2022-12-01T14:54:24.860Z,76.01
2022-12-01T14:57:34.206Z,76.86
2022-12-01T15:00:39.190Z,76.77
2022-12-01T15:03:50.699Z,76.85
2022-12-01T15:06:57.645Z,78.47
2022-12-01T15:10:02.157Z,77.44
2022-12-01T15:13:20.790Z,78.34
2022-12-01T15:16:26.313Z,78.91
2022-12-01T15:19:33.835Z,79.01
2022-12-01T15:22:36.659Z,79.36
2022-12-01T15:25:43.555Z,79.50
2022-12-01T15:28:46.482Z,79.69
2022-12-01T15:31:51.561Z,80.06
2022-12-01T15:34:57.172Z,80.23
2022-12-01T15:38:01.163Z,80.62
2022-12-01T15:41:28.459Z,80.47
2022-12-01T15:44:31.390Z,79.30
2022-12-01T15:47:36.911Z,79.17
2022-12-01T15:50:46.400Z,79.16
2022-12-01T15:53:53.809Z,79.76
2022-12-01T15:56:58.604Z,79.60
2022-12-01T16:00:02.346Z,79.32
2022-12-01T16:03:06.285Z,79.76
2022-12-01T16:06:14.029Z,80.31
2022-12-01T16:09:24.745Z,81.00
2022-12-01T16:12:28.749Z,80.97
2022-12-01T16:15:31.446Z,81.27
2022-12-01T16:18:35.189Z,81.05
2022-12-01T16:21:46.306Z,81.49
2022-12-01T16:24:52.587Z,81.23
2022-12-01T16:27:57.660Z,80.89
2022-12-01T16:31:00.449Z,79.87
2022-12-01T16:34:18.463Z,79.01
2022-12-01T16:37:28.698Z,79.01
2022-12-01T16:40:31.494Z,79.67
2022-12-01T16:43:34.236Z,79.90
2022-12-01T16:46:37.010Z,79.94
2022-12-01T16:49:41.474Z,79.97
2022-12-01T16:52:46.053Z,79.67
2022-12-01T16:55:52.091Z,80.46
2022-12-01T16:58:54.747Z,79.82
2022-12-01T17:01:57.502Z,80.26
2022-12-01T17:05:00.324Z,80.49
2022-12-01T17:09:03.403Z,80.57
2022-12-01T17:12:06.974Z,79.55
2022-12-01T17:15:11.141Z,80.13
2022-12-01T17:18:15.933Z,80.40
2022-12-01T17:21:18.676Z,80.81
2022-12-01T17:24:22.756Z,80.64
2022-12-01T17:27:27.590Z,80.29
2022-12-01T17:30:30.352Z,80.37
2022-12-01T17:33:33.499Z,80.14
2022-12-01T17:36:36.611Z,80.56
2022-12-01T17:39:40.814Z,81.34
2022-12-01T17:42:49.926Z,81.11
2022-12-01T17:45:53.280Z,81.60
2022-12-01T17:48:56.036Z,81.45
2022-12-01T17:51:58.809Z,81.99
2022-12-01T17:55:03.218Z,81.85
2022-12-01T17:58:06.127Z,81.48
2022-12-01T18:01:14.875Z,82.18
2022-12-01T18:04:17.658Z,81.98
2022-12-01T18:07:21.429Z,82.27
2022-12-01T18:10:25.603Z,82.63
2022-12-01T18:13:28.332Z,82.78
2022-12-01T18:16:35.252Z,82.92
2022-12-01T18:19:38.242Z,82.98
2022-12-01T18:22:40.955Z,83.12
2022-12-01T18:25:45.053Z,83.52
2022-12-01T18:28:47.911Z,83.56
2022-12-01T18:31:50.808Z,83.26
2022-12-01T18:34:53.706Z,83.32
2022-12-01T18:37:56.652Z,83.46
2022-12-01T18:41:02.227Z,83.78
2022-12-01T18:44:05.420Z,83.58
2022-12-01T18:47:08.265Z,83.48
2022-12-01T18:50:11.427Z,83.05
2022-12-01T18:53:14.168Z,83.27
2022-12-01T18:56:19.793Z,83.45
2022-12-01T18:59:22.701Z,83.92
2022-12-01T19:02:26.315Z,83.74
2022-12-01T19:05:30.734Z,83.83
2022-12-01T19:08:33.648Z,84.38
2022-12-01T19:11:40.552Z,84.58
2022-12-01T19:14:43.362Z,84.44
2022-12-01T19:17:46.252Z,84.84
2022-12-01T19:20:49.450Z,85.05
2022-12-01T19:23:53.867Z,84.92
2022-12-01T19:26:58.122Z,84.93
2022-12-01T19:30:00.996Z,85.40
2022-12-01T19:33:06.153Z,85.35
2022-12-01T19:36:13.637Z,85.37
2022-12-01T19:39:16.617Z,85.51
2022-12-01T19:42:20.952Z,85.52
2022-12-01T19:45:28.843Z,85.51
2022-12-01T19:48:31.696Z,85.64
2022-12-01T19:51:36.631Z,86.06
2022-12-01T19:54:40.407Z,86.18
2022-12-01T19:57:44.488Z,86.35
2022-12-01T20:00:47.468Z,86.44
2022-12-01T20:03:54.674Z,86.17
2022-12-01T20:06:57.621Z,86.83
2022-12-01T20:10:02.405Z,86.47
2022-12-01T20:13:09.870Z,86.61
2022-12-01T20:16:14.680Z,86.92
2022-12-01T20:19:17.414Z,86.70
2022-12-01T20:22:20.316Z,86.72
2022-12-01T20:28:42.218Z,86.72
2022-12-01T20:31:47.797Z,87.05
2022-12-01T20:34:50.878Z,87.07
2022-12-01T20:37:53.819Z,86.82
2022-12-01T20:40:56.912Z,86.93
2022-12-01T20:44:06.989Z,86.92
2022-12-01T20:47:14.757Z,87.26
2022-12-01T20:50:17.566Z,87.09
2022-12-01T20:53:21.471Z,87.15
2022-12-01T20:56:24.227Z,87.14
2022-12-01T20:59:29.298Z,87.38
2022-12-01T21:02:32.536Z,87.60
2022-12-01T21:05:35.530Z,87.56
2022-12-01T21:08:46.871Z,87.54
2022-12-01T21:12:09.077Z,87.48
2022-12-01T21:15:22.051Z,87.72
2022-12-01T21:18:27.255Z,87.75
2022-12-01T21:21:31.659Z,87.65
2022-12-01T21:24:39.161Z,87.68
2022-12-01T21:27:46.575Z,87.84
2022-12-01T21:30:52.474Z,87.67
2022-12-01T21:33:56.883Z,87.88
2022-12-01T21:37:03.480Z,87.78
2022-12-01T21:40:16.799Z,87.73
2022-12-01T21:43:26.757Z,87.35
2022-12-01T21:46:30.986Z,87.17
2022-12-01T21:49:37.377Z,87.04
2022-12-01T21:52:42.784Z,87.19
2022-12-01T21:55:47.622Z,87.19
2022-12-01T21:58:50.671Z,87.04
2022-12-01T22:01:56.572Z,87.21
2022-12-01T22:05:00.551Z,87.46
2022-12-01T22:08:16.536Z,87.59
2022-12-01T22:11:21.882Z,87.62
2022-12-01T22:14:28.937Z,87.48
2022-12-01T22:17:33.218Z,87.31
2022-12-01T22:20:35.946Z,87.52
2022-12-01T22:23:38.706Z,87.53
2022-12-01T22:26:44.224Z,87.56
2022-12-01T22:29:48.708Z,87.49
2022-12-01T22:32:57.022Z,87.41
2022-12-01T22:35:59.689Z,87.68
2022-12-01T22:39:03.378Z,87.70
2022-12-01T22:42:14.339Z,87.55
2022-12-01T22:45:23.989Z,87.56
2022-12-01T22:48:34.882Z,87.29
2022-12-01T22:51:42.398Z,87.55
2022-12-01T22:54:49.028Z,87.23
2022-12-01T22:57:52.049Z,87.36
2022-12-01T23:00:58.045Z,87.27
2022-12-01T23:04:15.757Z,87.16
2022-12-01T23:07:28.794Z,87.17
2022-12-01T23:10:34.966Z,87.19
2022-12-01T23:13:37.746Z,87.44
2022-12-01T23:16:41.161Z,86.96
2022-12-01T23:19:45.392Z,87.02
2022-12-01T23:22:48.165Z,87.26
2022-12-01T23:25:51.923Z,87.04
2022-12-01T23:28:58.066Z,87.25
2022-12-01T23:32:00.782Z,87.27
2022-12-01T23:35:05.496Z,87.02
2022-12-01T23:38:15.032Z,87.17
2022-12-01T23:41:25.476Z,87.25
2022-12-01T23:44:38.292Z,86.96
2022-12-01T23:47:41.224Z,87.47
2022-12-01T23:50:45.424Z,87.66
2022-12-01T23:53:48.271Z,87.34
2022-12-01T23:56:54.607Z,87.41
